Time;durP1;ratioP1;P1;durP2;ratioP2;P2;SDS_P1;SDS_P2;PMS_P1;PMS_P2;Temp;Humidity;BMP_temperature;BMP_pressure;BME280_temperature;BME280_humidity;BME280_pressure;Samples;Min_cycle;Max_cycle;Signal;HPM_P1;HPM_P2
2022/12/23 00:00:26;;;;;;;11.00;4.30;;;;;;;8.31;100.00;99041.94;4996222;28;20229;-66
2022/12/23 00:02:52;;;;;;;13.30;4.63;;;;;;;8.29;100.00;99030.97;5010445;28;20650;-66
2022/12/23 00:05:17;;;;;;;14.73;4.63;;;;;;;8.45;100.00;99034.22;5013492;28;20245;-66
2022/12/23 00:07:43;;;;;;;7.90;3.63;;;;;;;8.53;100.00;99037.16;5011955;28;20191;-67
2022/12/23 00:10:09;;;;;;;11.77;5.10;;;;;;;8.46;100.00;99025.63;5020614;28;20717;-66
2022/12/23 00:15:18;;;;;;;15.90;5.10;;;;;;;8.41;100.00;99032.78;5002312;28;20233;-67
2022/12/23 00:17:44;;;;;;;15.87;4.80;;;;;;;8.16;100.00;99028.31;5009795;28;20705;-67
2022/12/23 00:20:14;;;;;;;11.77;5.30;;;;;;;8.01;100.00;99024.97;4996708;28;20406;-67
2022/12/23 00:25:39;;;;;;;8.40;5.27;;;;;;;8.12;100.00;99019.19;5014672;28;20898;-67
2022/12/23 00:28:10;;;;;;;11.00;5.57;;;;;;;8.19;100.00;99020.47;5008153;28;20182;-66
2022/12/23 00:30:37;;;;;;;11.77;5.83;;;;;;;8.33;100.00;99012.72;5004788;28;20304;-67
2022/12/23 00:33:02;;;;;;;8.67;5.43;;;;;;;8.24;100.00;99016.69;5008407;28;20210;-66
2022/12/23 00:35:31;;;;;;;9.33;5.10;;;;;;;8.32;100.00;99013.66;5014542;28;20193;-66
2022/12/23 00:37:56;;;;;;;9.40;5.40;;;;;;;8.29;100.00;99005.34;5011263;28;20187;-67
2022/12/23 00:43:05;;;;;;;13.93;6.27;;;;;;;8.47;100.00;99013.63;5022536;28;20190;-66
2022/12/23 00:45:31;;;;;;;11.63;5.73;;;;;;;8.49;100.00;99009.25;5014534;28;20183;-67
2022/12/23 00:50:40;;;;;;;11.57;6.10;;;;;;;8.37;100.00;99018.47;5008951;28;20730;-67
2022/12/23 00:53:06;;;;;;;12.93;6.83;;;;;;;8.33;100.00;99025.53;5016670;28;20191;-67
2022/12/23 00:55:31;;;;;;;9.20;6.43;;;;;;;8.26;100.00;99026.03;5001130;28;20179;-66
2022/12/23 00:57:57;;;;;;;8.13;6.33;;;;;;;8.26;100.00;99024.31;5013822;28;20186;-67
2022/12/23 01:05:35;;;;;;;6.93;5.00;;;;;;;8.30;100.00;99015.50;5006580;28;20233;-65
2022/12/23 01:06:01;;;;;;;8.90;5.60;;;;;;;8.24;100.00;99024.38;5013251;28;20664;-65
2022/12/23 01:08:27;;;;;;;11.97;6.00;;;;;;;8.30;100.00;99032.59;5007962;28;20246;-66
2022/12/23 01:10:52;;;;;;;10.97;5.63;;;;;;;8.29;100.00;99031.78;5020684;28;20811;-65
2022/12/23 01:13:18;;;;;;;6.53;4.90;;;;;;;8.40;100.00;99037.06;5018529;28;20218;-65
2022/12/23 01:15:44;;;;;;;6.93;5.50;;;;;;;8.30;100.00;99030.03;5013820;28;20189;-65
2022/12/23 01:18:09;;;;;;;6.40;5.63;;;;;;;8.39;100.00;99035.41;5012955;28;20187;-65
2022/12/23 01:20:37;;;;;;;6.20;5.13;;;;;;;8.30;100.00;99041.13;5001907;28;20681;-66
2022/12/23 01:23:03;;;;;;;5.97;5.37;;;;;;;8.39;100.00;99048.22;5024528;28;20269;-66
2022/12/23 01:25:29;;;;;;;6.03;4.80;;;;;;;8.51;100.00;99056.94;5009341;28;20262;-67
2022/12/23 01:27:54;;;;;;;5.53;4.63;;;;;;;8.59;100.00;99060.75;5010806;28;20187;-66
2022/12/23 01:30:20;;;;;;;5.63;4.97;;;;;;;8.59;100.00;99064.13;5005571;28;20237;-66
2022/12/23 01:32:45;;;;;;;5.80;5.20;;;;;;;8.65;100.00;99066.31;5008638;28;20703;-66
2022/12/23 01:35:10;;;;;;;7.13;5.00;;;;;;;8.71;100.00;99076.16;5002452;28;20327;-66
2022/12/23 01:37:35;;;;;;;7.67;4.93;;;;;;;8.65;100.00;99076.56;5012996;28;20191;-66
2022/12/23 01:40:01;;;;;;;5.90;5.30;;;;;;;8.70;100.00;99066.03;5013352;28;20182;-66
2022/12/23 01:42:45;;;;;;;6.67;4.90;;;;;;;8.77;100.00;99085.22;5002270;28;20230;-65
2022/12/23 01:45:27;;;;;;;8.83;7.77;;;;;;;8.65;100.00;99086.81;5013119;28;20179;-66
2022/12/23 01:47:56;;;;;;;5.77;5.20;;;;;;;8.75;100.00;99092.19;5012507;28;20256;-65
2022/12/23 01:50:42;;;;;;;5.20;4.70;;;;;;;8.60;100.00;99098.28;5005665;28;20223;-66
2022/12/23 01:53:17;;;;;;;5.73;5.13;;;;;;;8.67;100.00;99104.66;5012291;28;20253;-66
2022/12/23 01:55:49;;;;;;;4.03;3.40;;;;;;;8.62;100.00;99099.00;5028256;28;20625;-65
2022/12/23 01:58:29;;;;;;;4.40;4.00;;;;;;;8.44;100.00;99096.63;5010137;28;20195;-64
2022/12/23 02:03:41;;;;;;;4.70;3.60;;;;;;;8.52;100.00;99109.00;5006696;28;20189;-64
2022/12/23 02:09:18;;;;;;;4.10;3.70;;;;;;;8.61;100.00;99120.41;5012691;28;20284;-65
2022/12/23 02:12:10;;;;;;;4.70;3.60;;;;;;;8.49;100.00;99122.00;5015697;28;20221;-64
2022/12/23 02:17:56;;;;;;;3.60;2.97;;;;;;;8.34;100.00;99128.88;5012018;28;20206;-64
2022/12/23 02:20:43;;;;;;;3.63;3.17;;;;;;;8.19;100.00;99138.31;5000527;28;22149;-64
2022/12/23 02:23:36;;;;;;;3.67;2.83;;;;;;;8.18;100.00;99140.03;5010952;28;20622;-64
2022/12/23 02:26:32;;;;;;;3.93;2.60;;;;;;;8.23;100.00;99144.88;5012389;28;20524;-64
2022/12/23 02:28:58;;;;;;;2.80;1.93;;;;;;;8.40;100.00;99154.94;5012257;28;20688;-64
2022/12/23 02:32:03;;;;;;;2.87;2.27;;;;;;;8.32;100.00;99148.63;5000590;28;20218;-64
2022/12/23 02:34:39;;;;;;;2.67;2.27;;;;;;;8.42;100.00;99152.28;4991079;28;20301;-64
2022/12/23 02:37:16;;;;;;;1.97;1.50;;;;;;;8.32;100.00;99157.16;5010889;28;20285;-64
2022/12/23 02:39:41;;;;;;;1.80;1.20;;;;;;;8.24;100.00;99141.41;5007940;28;20282;-64
2022/12/23 02:42:16;;;;;;;3.73;1.47;;;;;;;8.12;100.00;99139.59;5014996;28;20308;-64
2022/12/23 02:44:57;;;;;;;1.30;1.00;;;;;;;8.03;100.00;99135.84;5027588;28;20186;-64
2022/12/23 02:47:27;;;;;;;5.57;1.40;;;;;;;8.07;100.00;99139.84;5000165;28;20201;-64
2022/12/23 02:49:57;;;;;;;4.27;1.47;;;;;;;8.10;100.00;99149.94;5008934;28;20605;-64
2022/12/23 02:52:30;;;;;;;4.10;1.37;;;;;;;8.10;100.00;99146.53;5001441;28;20226;-64
2022/12/23 02:55:00;;;;;;;4.43;1.83;;;;;;;8.13;100.00;99143.81;5009312;28;20180;-64
2022/12/23 02:57:31;;;;;;;3.27;1.40;;;;;;;8.01;100.00;99142.78;5007127;28;20176;-64
2022/12/23 02:59:58;;;;;;;1.83;1.60;;;;;;;8.04;100.00;99138.31;5008237;28;20240;-65
2022/12/23 03:02:24;;;;;;;1.90;1.50;;;;;;;8.13;100.00;99148.91;5000756;28;20238;-63
2022/12/23 03:04:49;;;;;;;2.07;1.37;;;;;;;8.20;100.00;99143.34;5011616;28;20238;-63
2022/12/23 03:07:37;;;;;;;1.90;1.70;;;;;;;8.03;100.00;99136.66;5026873;28;20191;-64
2022/12/23 03:10:21;;;;;;;4.07;2.00;;;;;;;7.95;100.00;99148.25;4999595;28;20255;-64
2022/12/23 03:13:11;;;;;;;4.83;1.90;;;;;;;7.85;100.00;99156.50;5005883;28;20222;-64
2022/12/23 03:15:59;;;;;;;4.10;1.70;;;;;;;7.89;100.00;99157.16;5007626;28;20627;-64
2022/12/23 03:18:36;;;;;;;2.17;1.80;;;;;;;7.87;100.00;99157.22;4999275;28;20704;-64
2022/12/23 03:21:15;;;;;;;2.17;1.63;;;;;;;7.71;100.00;99164.16;5005333;28;20248;-63
2022/12/23 03:23:49;;;;;;;3.57;1.80;;;;;;;7.66;100.00;99164.41;5017160;28;20198;-64
2022/12/23 03:26:30;;;;;;;2.23;2.00;;;;;;;7.56;100.00;99169.22;5011176;28;20182;-64
2022/12/23 03:29:02;;;;;;;2.23;1.43;;;;;;;7.33;100.00;99173.09;5010587;28;20655;-64
2022/12/23 03:31:30;;;;;;;2.00;1.80;;;;;;;7.29;100.00;99178.47;5012994;28;20214;-64
2022/12/23 03:34:10;;;;;;;4.13;2.03;;;;;;;7.09;100.00;99180.38;5024033;28;20566;-64
2022/12/23 03:36:41;;;;;;;3.43;1.60;;;;;;;7.08;100.00;99179.56;4991811;28;20183;-64
2022/12/23 03:39:13;;;;;;;2.70;1.80;;;;;;;6.97;100.00;99192.13;5010361;28;20636;-63
2022/12/23 03:41:47;;;;;;;2.17;1.90;;;;;;;7.00;100.00;99197.06;5001653;28;20227;-63
2022/12/23 03:44:20;;;;;;;2.97;2.27;;;;;;;7.01;100.00;99191.03;5013399;28;20197;-64
2022/12/23 03:47:01;;;;;;;2.93;2.73;;;;;;;6.88;100.00;99195.16;5006562;28;20187;-65
2022/12/23 03:49:32;;;;;;;4.00;2.47;;;;;;;6.84;100.00;99191.13;5004569;28;20203;-64
2022/12/23 03:52:04;;;;;;;2.50;2.30;;;;;;;6.74;100.00;99206.13;5003437;28;20226;-64
2022/12/23 03:54:37;;;;;;;2.60;2.40;;;;;;;6.67;100.00;99209.91;5007533;28;20216;-63
2022/12/23 03:57:06;;;;;;;3.53;2.40;;;;;;;6.62;100.00;99205.88;5013265;28;20203;-63
2022/12/23 03:59:40;;;;;;;2.83;2.00;;;;;;;6.61;100.00;99199.09;5015148;28;20199;-63
2022/12/23 04:02:26;;;;;;;2.43;2.23;;;;;;;6.59;100.00;99212.88;4996331;28;20304;-63
2022/12/23 04:04:54;;;;;;;4.50;2.67;;;;;;;6.46;100.00;99207.56;5014928;28;20186;-64
2022/12/23 04:07:22;;;;;;;5.80;3.60;;;;;;;6.34;100.00;99216.69;5013193;28;20195;-64
2022/12/23 04:09:50;;;;;;;6.53;4.93;;;;;;;6.22;100.00;99217.31;5014882;28;20312;-64
2022/12/23 04:12:16;;;;;;;4.87;4.40;;;;;;;6.16;100.00;99215.88;5004534;28;20226;-63
2022/12/23 04:14:47;;;;;;;7.40;4.53;;;;;;;6.06;100.00;99227.47;5002353;28;20348;-63
2022/12/23 04:17:13;;;;;;;4.50;4.10;;;;;;;6.04;100.00;99231.81;4983487;28;20325;-63
2022/12/23 04:19:38;;;;;;;4.87;4.37;;;;;;;6.05;100.00;99228.38;5012071;28;20647;-63
2022/12/23 04:22:03;;;;;;;7.50;4.90;;;;;;;6.01;100.00;99227.69;5019395;28;20218;-64
2022/12/23 04:24:29;;;;;;;4.87;4.40;;;;;;;6.01;100.00;99237.91;5013326;28;20934;-64
2022/12/23 04:26:54;;;;;;;5.83;5.13;;;;;;;6.03;100.00;99228.44;5012952;28;20225;-63
2022/12/23 04:29:19;;;;;;;5.17;4.50;;;;;;;5.89;100.00;99221.47;5013373;28;20599;-66
2022/12/23 04:31:44;;;;;;;4.77;3.93;;;;;;;5.78;100.00;99216.88;5016989;28;20362;-63
2022/12/23 04:34:10;;;;;;;6.30;4.10;;;;;;;5.78;100.00;99228.78;5009137;28;20199;-64
2022/12/23 04:36:35;;;;;;;4.43;3.50;;;;;;;5.79;100.00;99223.63;5021568;28;20675;-63
2022/12/23 04:39:00;;;;;;;3.37;3.03;;;;;;;5.67;100.00;99221.66;5013391;28;20178;-64
2022/12/23 04:41:25;;;;;;;2.87;2.63;;;;;;;5.61;100.00;99221.97;5015222;28;20613;-64
2022/12/23 04:43:51;;;;;;;4.93;2.97;;;;;;;5.76;100.00;99205.09;5018837;28;20232;-63
2022/12/23 04:46:16;;;;;;;3.00;2.70;;;;;;;5.87;100.00;99209.66;5013922;28;20334;-63
2022/12/23 04:48:41;;;;;;;3.63;2.90;;;;;;;5.90;100.00;99207.75;5014072;28;20223;-64
2022/12/23 04:51:07;;;;;;;4.33;2.93;;;;;;;5.89;100.00;99225.72;5012352;28;20577;-63
2022/12/23 04:53:35;;;;;;;3.33;2.93;;;;;;;5.63;100.00;99233.75;5019479;28;20241;-63
2022/12/23 04:56:01;;;;;;;4.70;3.30;;;;;;;5.62;100.00;99239.75;5013380;28;20176;-64
2022/12/23 04:58:26;;;;;;;5.83;3.63;;;;;;;5.73;100.00;99243.50;5013984;28;20181;-64
2022/12/23 05:01:05;;;;;;;3.40;3.10;;;;;;;5.69;100.00;99247.09;5009881;28;20239;-63
2022/12/23 05:03:31;;;;;;;4.93;3.00;;;;;;;5.76;100.00;99243.38;5020589;28;20185;-64
2022/12/23 05:05:57;;;;;;;3.27;2.70;;;;;;;5.72;100.00;99246.94;5013478;28;20189;-64
2022/12/23 05:08:22;;;;;;;3.53;3.23;;;;;;;5.79;100.00;99251.69;5013807;28;20182;-63
2022/12/23 05:10:47;;;;;;;3.20;2.90;;;;;;;5.71;100.00;99238.47;5009809;28;20228;-63
2022/12/23 05:13:12;;;;;;;4.03;2.60;;;;;;;5.73;100.00;99236.69;5012908;28;20664;-63
2022/12/23 05:15:38;;;;;;;2.80;1.47;;;;;;;5.70;100.00;99233.44;5013693;28;20174;-63
2022/12/23 05:18:03;;;;;;;2.90;2.10;;;;;;;5.91;100.00;99236.69;5008102;28;20277;-64
2022/12/23 05:20:28;;;;;;;1.87;1.77;;;;;;;6.04;100.00;99250.53;4999680;28;20245;-64
2022/12/23 05:22:54;;;;;;;2.10;1.50;;;;;;;6.08;100.00;99252.03;5025250;28;20543;-64
2022/12/23 05:25:19;;;;;;;2.10;1.70;;;;;;;6.10;100.00;99250.22;5012501;28;20246;-63
2022/12/23 05:27:44;;;;;;;1.90;1.77;;;;;;;6.14;100.00;99263.69;5013095;28;20183;-64
2022/12/23 05:30:10;;;;;;;2.13;1.70;;;;;;;6.00;100.00;99259.22;5004547;28;20288;-63
2022/12/23 05:32:35;;;;;;;2.23;2.00;;;;;;;6.04;100.00;99249.69;5012937;28;20170;-63
2022/12/23 05:35:01;;;;;;;5.07;2.23;;;;;;;6.04;100.00;99258.19;5009190;28;20210;-63
2022/12/23 05:37:26;;;;;;;4.50;2.37;;;;;;;6.11;100.00;99256.16;5011816;28;20712;-63
2022/12/23 05:39:51;;;;;;;3.47;2.50;;;;;;;6.13;100.00;99260.28;5013409;28;20551;-64
2022/12/23 05:42:18;;;;;;;4.37;3.00;;;;;;;6.29;100.00;99262.09;5002502;28;20280;-63
2022/12/23 05:44:44;;;;;;;5.17;3.70;;;;;;;6.38;100.00;99261.59;5008708;28;20249;-63
2022/12/23 05:47:09;;;;;;;5.43;4.03;;;;;;;6.33;100.00;99265.31;5010103;28;20189;-63
2022/12/23 05:49:35;;;;;;;6.43;4.20;;;;;;;6.20;100.00;99257.41;5008940;28;20190;-64
2022/12/23 05:52:00;;;;;;;5.70;3.90;;;;;;;6.23;100.00;99257.28;5020140;28;20218;-63
2022/12/23 05:54:25;;;;;;;4.20;3.80;;;;;;;6.32;100.00;99264.47;5020326;28;20685;-64
2022/12/23 05:56:51;;;;;;;4.17;3.77;;;;;;;6.34;100.00;99266.94;5012588;28;20186;-64
2022/12/23 05:59:16;;;;;;;7.27;3.90;;;;;;;6.45;100.00;99267.25;5013184;28;20280;-64
2022/12/23 06:01:41;;;;;;;5.20;4.10;;;;;;;6.47;100.00;99267.97;5015473;28;20281;-64
2022/12/23 06:04:07;;;;;;;4.43;3.50;;;;;;;6.45;100.00;99275.72;5015603;28;20193;-63
2022/12/23 06:06:32;;;;;;;3.57;3.20;;;;;;;6.57;100.00;99265.78;5012414;28;20227;-63
2022/12/23 06:08:57;;;;;;;3.90;3.50;;;;;;;6.56;100.00;99259.00;5011561;28;20225;-64
2022/12/23 06:11:22;;;;;;;4.30;3.30;;;;;;;6.63;100.00;99262.91;5013008;28;20227;-64
2022/12/23 06:13:48;;;;;;;3.80;3.10;;;;;;;6.65;100.00;99258.56;5017434;28;20207;-63
2022/12/23 06:16:13;;;;;;;3.43;2.90;;;;;;;6.61;100.00;99263.00;5011833;28;20625;-63
2022/12/23 06:18:38;;;;;;;4.70;3.07;;;;;;;6.61;100.00;99262.16;5012537;28;20253;-64
2022/12/23 06:21:04;;;;;;;4.90;2.90;;;;;;;6.51;100.00;99269.50;5010009;28;20299;-64
2022/12/23 06:23:29;;;;;;;2.87;2.67;;;;;;;6.52;100.00;99265.19;5019931;28;20197;-63
2022/12/23 06:25:59;;;;;;;5.03;3.03;;;;;;;6.43;100.00;99274.97;5027138;28;20232;-63
2022/12/23 06:28:25;;;;;;;3.47;3.03;;;;;;;6.55;100.00;99281.19;5011366;28;20194;-63
2022/12/23 06:30:56;;;;;;;4.53;2.63;;;;;;;6.65;100.00;99291.78;5003737;28;20233;-63
2022/12/23 06:33:23;;;;;;;5.47;3.63;;;;;;;6.78;100.00;99297.06;5020820;28;20289;-63
2022/12/23 06:35:48;;;;;;;3.20;2.90;;;;;;;6.81;100.00;99294.38;5012255;28;20190;-64
2022/12/23 06:38:14;;;;;;;4.53;3.30;;;;;;;6.82;100.00;99287.50;5012007;28;20179;-63
2022/12/23 06:40:39;;;;;;;3.83;3.10;;;;;;;6.85;100.00;99287.38;5007246;28;20252;-63
2022/12/23 06:43:05;;;;;;;5.10;3.03;;;;;;;6.72;100.00;99284.59;5022697;28;20212;-63
2022/12/23 06:45:30;;;;;;;3.57;3.10;;;;;;;6.89;100.00;99291.41;5010650;28;20659;-63
2022/12/23 06:47:55;;;;;;;3.60;2.80;;;;;;;7.03;100.00;99290.69;5011869;28;20198;-64
2022/12/23 06:50:21;;;;;;;4.53;3.67;;;;;;;7.05;100.00;99284.56;5004105;28;20190;-64
2022/12/23 06:52:47;;;;;;;6.97;3.33;;;;;;;6.99;100.00;99286.63;5025020;28;20187;-63
2022/12/23 06:55:13;;;;;;;5.27;3.60;;;;;;;7.05;100.00;99273.53;5007366;28;20191;-63
2022/12/23 06:57:38;;;;;;;3.60;3.20;;;;;;;7.10;100.00;99272.34;5017761;28;20522;-63
2022/12/23 07:00:04;;;;;;;5.70;3.60;;;;;;;7.13;100.00;99273.13;5000078;28;20257;-64
2022/12/23 07:02:30;;;;;;;6.60;4.03;;;;;;;7.15;100.00;99279.78;5024049;28;20183;-63
2022/12/23 07:04:56;;;;;;;4.97;3.50;;;;;;;7.24;100.00;99274.19;5023767;28;20726;-63
2022/12/23 07:07:21;;;;;;;4.63;3.17;;;;;;;7.14;100.00;99278.13;5002899;28;20720;-63
2022/12/23 07:09:46;;;;;;;3.93;2.23;;;;;;;7.21;100.00;99270.97;5010377;28;20278;-63
2022/12/23 07:12:12;;;;;;;4.37;2.10;;;;;;;6.93;100.00;99265.59;5016651;28;20225;-64
2022/12/23 07:14:37;;;;;;;2.40;2.20;;;;;;;7.21;100.00;99269.22;5011239;28;20234;-64
2022/12/23 07:17:02;;;;;;;4.83;2.40;;;;;;;7.23;100.00;99267.44;5011022;28;20178;-63
2022/12/23 07:19:28;;;;;;;3.07;2.43;;;;;;;7.33;100.00;99272.88;5002453;28;20193;-63
2022/12/23 07:21:54;;;;;;;2.87;2.20;;;;;;;7.30;100.00;99272.22;5015169;28;20237;-64
2022/12/23 07:24:19;;;;;;;2.73;2.43;;;;;;;7.02;100.00;99281.34;5011636;28;20274;-64
2022/12/23 07:26:44;;;;;;;3.27;2.63;;;;;;;7.10;100.00;99292.81;5014805;28;20210;-63
2022/12/23 07:29:10;;;;;;;3.90;2.33;;;;;;;7.21;100.00;99291.44;5015216;28;20209;-63
2022/12/23 07:31:35;;;;;;;2.77;2.27;;;;;;;7.34;100.00;99292.41;5017003;28;20276;-63
2022/12/23 07:34:01;;;;;;;3.77;2.00;;;;;;;7.39;100.00;99303.25;5030272;28;20206;-64
2022/12/23 07:36:26;;;;;;;3.20;2.50;;;;;;;7.49;100.00;99302.72;5013348;28;20190;-64
2022/12/23 07:38:51;;;;;;;3.87;3.50;;;;;;;7.52;100.00;99298.28;5015070;28;20222;-64
2022/12/23 07:41:17;;;;;;;3.77;2.43;;;;;;;7.46;100.00;99308.84;5004436;28;20215;-64
2022/12/23 07:43:42;;;;;;;3.17;2.63;;;;;;;7.46;100.00;99311.41;5015817;28;20186;-63
2022/12/23 07:46:08;;;;;;;7.10;3.80;;;;;;;7.36;100.00;99308.50;5011561;28;20187;-64
2022/12/23 07:48:34;;;;;;;6.40;3.67;;;;;;;7.58;100.00;99309.91;5009921;28;20183;-64
2022/12/23 07:51:01;;;;;;;4.67;4.13;;;;;;;7.71;100.00;99316.00;5001731;28;20275;-64
2022/12/23 07:53:27;;;;;;;9.40;8.50;;;;;;;7.66;100.00;99317.97;5013158;28;20203;-64
2022/12/23 07:55:52;;;;;;;11.57;10.20;;;;;;;7.70;100.00;99328.88;5010853;28;20191;-64
2022/12/23 07:58:18;;;;;;;5.90;5.30;;;;;;;7.59;100.00;99317.50;5012864;28;20210;-64
2022/12/23 08:00:43;;;;;;;6.50;6.00;;;;;;;7.46;100.00;99313.97;4995466;28;20230;-64
2022/12/23 08:03:10;;;;;;;7.13;4.33;;;;;;;7.48;100.00;99311.31;5024735;28;20189;-63
2022/12/23 08:05:35;;;;;;;8.70;7.33;;;;;;;7.47;100.00;99301.97;5013439;28;20190;-66
2022/12/23 08:08:01;;;;;;;5.70;4.33;;;;;;;7.49;100.00;99305.28;5014298;28;20186;-65
2022/12/23 08:10:26;;;;;;;3.80;3.50;;;;;;;7.61;100.00;99294.38;5008072;28;20234;-63
2022/12/23 08:12:51;;;;;;;7.13;4.33;;;;;;;7.61;100.00;99291.00;5025660;28;20213;-63
2022/12/23 08:15:16;;;;;;;6.50;4.03;;;;;;;7.59;100.00;99285.94;5006576;28;20245;-62
2022/12/23 08:17:42;;;;;;;4.00;3.70;;;;;;;7.53;100.00;99288.84;5008080;28;20191;-63
2022/12/23 08:20:07;;;;;;;6.30;3.90;;;;;;;7.52;100.00;99280.34;5003914;28;20218;-63
2022/12/23 08:22:33;;;;;;;3.90;3.60;;;;;;;7.68;100.00;99292.31;5019986;28;20209;-63
2022/12/23 08:24:58;;;;;;;6.33;4.07;;;;;;;7.74;100.00;99292.78;5013822;28;20187;-63
2022/12/23 08:27:24;;;;;;;3.47;3.17;;;;;;;7.81;100.00;99298.38;5012301;28;20833;-64
2022/12/23 08:29:49;;;;;;;4.57;3.07;;;;;;;7.89;100.00;99309.03;5013866;28;20274;-64
2022/12/23 08:32:14;;;;;;;3.93;3.53;;;;;;;7.79;100.00;99305.34;5019952;28;20561;-64
2022/12/23 08:34:40;;;;;;;5.73;3.37;;;;;;;7.87;100.00;99312.59;5014394;28;20202;-63
2022/12/23 08:37:05;;;;;;;3.23;2.93;;;;;;;7.83;100.00;99311.94;5013510;28;20221;-63
2022/12/23 08:39:31;;;;;;;4.57;3.13;;;;;;;7.91;100.00;99308.94;4993490;28;20672;-63
2022/12/23 08:41:56;;;;;;;8.57;3.83;;;;;;;7.79;100.00;99317.31;5005283;28;20232;-64
2022/12/23 08:44:21;;;;;;;3.50;3.10;;;;;;;7.93;100.00;99319.94;5009471;28;20631;-63
2022/12/23 08:46:47;;;;;;;5.10;3.30;;;;;;;8.06;100.00;99318.34;5009783;28;20691;-63
2022/12/23 08:49:12;;;;;;;8.30;4.37;;;;;;;8.08;100.00;99320.81;5014323;28;20197;-63
2022/12/23 08:51:37;;;;;;;5.47;3.70;;;;;;;8.20;100.00;99319.28;5016153;28;20232;-63
2022/12/23 08:54:03;;;;;;;5.00;4.50;;;;;;;8.34;100.00;99316.75;5016970;28;20314;-63
2022/12/23 08:56:32;;;;;;;4.20;2.97;;;;;;;8.51;100.00;99312.44;5012166;28;20630;-63
2022/12/23 08:58:57;;;;;;;4.70;3.00;;;;;;;8.49;100.00;99298.88;5012568;28;20654;-64
2022/12/23 09:01:25;;;;;;;2.90;2.60;;;;;;;8.33;100.00;99298.91;5013446;28;20244;-64
2022/12/23 09:03:51;;;;;;;2.97;2.77;;;;;;;8.45;100.00;99305.06;5018698;28;20186;-64
2022/12/23 09:06:20;;;;;;;2.50;2.23;;;;;;;8.53;100.00;99305.44;5011808;28;20191;-63
2022/12/23 09:08:46;;;;;;;3.20;2.90;;;;;;;8.62;100.00;99301.53;5012640;28;20241;-64
2022/12/23 09:11:14;;;;;;;3.23;2.57;;;;;;;8.69;100.00;99308.75;5002328;28;20276;-64
2022/12/23 09:13:40;;;;;;;4.00;2.87;;;;;;;8.68;100.00;99309.69;5006119;28;20293;-63
2022/12/23 09:16:06;;;;;;;2.63;2.43;;;;;;;8.87;100.00;99311.16;5012752;28;20269;-64
2022/12/23 09:18:31;;;;;;;3.97;2.40;;;;;;;8.91;100.00;99315.19;5012603;28;20185;-63
2022/12/23 09:21:10;;;;;;;3.60;2.20;;;;;;;8.86;100.00;99312.88;5010058;28;20222;-64
2022/12/23 09:23:36;;;;;;;2.33;2.13;;;;;;;9.01;100.00;99315.44;5009326;28;20188;-63
2022/12/23 09:26:03;;;;;;;2.33;2.07;;;;;;;9.07;100.00;99314.22;5026237;28;20189;-64
2022/12/23 09:28:29;;;;;;;5.00;2.20;;;;;;;8.99;100.00;99315.53;5012559;28;20179;-63
2022/12/23 09:30:54;;;;;;;3.73;2.40;;;;;;;8.99;100.00;99309.56;5009201;28;20296;-63
2022/12/23 09:33:19;;;;;;;5.70;2.30;;;;;;;9.09;100.00;99314.97;5021450;28;20195;-63
2022/12/23 09:35:45;;;;;;;2.27;2.03;;;;;;;9.20;100.00;99310.00;5013208;28;20244;-64
2022/12/23 09:38:10;;;;;;;2.60;2.40;;;;;;;9.16;100.00;99313.69;5011712;28;20190;-63
2022/12/23 09:40:38;;;;;;;3.10;2.07;;;;;;;9.11;100.00;99315.72;5003939;28;20237;-63
2022/12/23 09:43:13;;;;;;;4.17;2.70;;;;;;;9.21;100.00;99319.34;5011246;28;20179;-63
2022/12/23 09:46:02;;;;;;;4.27;3.03;;;;;;;9.02;100.00;99317.91;5006136;28;20270;-63
2022/12/23 09:48:34;;;;;;;4.67;3.90;;;;;;;9.16;100.00;99313.69;5008591;28;20203;-63
2022/12/23 09:51:02;;;;;;;3.70;3.40;;;;;;;9.29;100.00;99306.03;5004681;28;20230;-63
2022/12/23 09:54:10;;;;;;;4.40;4.00;;;;;;;9.13;100.00;99308.72;4999068;28;20202;-63
2022/12/23 09:56:49;;;;;;;3.83;3.53;;;;;;;9.24;100.00;99302.94;5010432;28;20282;-63
2022/12/23 09:59:35;;;;;;;4.53;3.50;;;;;;;9.26;100.00;99303.69;5008937;28;20311;-64
2022/12/23 10:02:17;;;;;;;4.57;3.63;;;;;;;9.36;100.00;99315.84;5004050;28;20295;-64
2022/12/23 10:05:20;;;;;;;4.97;3.40;;;;;;;9.34;100.00;99307.41;5011097;28;20709;-63
2022/12/23 10:07:57;;;;;;;4.37;3.70;;;;;;;9.44;100.00;99299.97;5010925;28;20182;-63
2022/12/23 10:10:36;;;;;;;4.43;4.00;;;;;;;9.31;100.00;99297.31;5003011;28;20230;-64
2022/12/23 10:13:05;;;;;;;7.30;3.80;;;;;;;9.44;100.00;99302.53;5008620;28;20253;-64
2022/12/23 10:15:44;;;;;;;5.50;3.63;;;;;;;9.34;100.00;99294.59;5002741;28;20692;-64
2022/12/23 10:18:23;;;;;;;4.43;4.03;;;;;;;9.37;100.00;99291.81;5004172;28;20285;-70
2022/12/23 10:21:01;;;;;;;4.63;3.97;;;;;;;9.32;100.00;99278.44;5015546;28;20229;-69
2022/12/23 10:23:37;;;;;;;3.90;3.60;;;;;;;9.36;100.00;99273.94;5019629;28;20178;-69
2022/12/23 10:26:08;;;;;;;4.00;3.70;;;;;;;9.39;100.00;99284.03;5010092;28;20215;-63
2022/12/23 10:28:33;;;;;;;3.90;3.50;;;;;;;9.45;100.00;99273.38;5009034;28;20649;-63
2022/12/23 10:31:03;;;;;;;5.80;4.57;;;;;;;9.51;100.00;99267.03;5000460;28;20242;-62
2022/12/23 10:34:03;;;;;;;5.10;3.57;;;;;;;9.13;100.00;99277.94;4999228;28;20662;-62
2022/12/23 10:37:13;;;;;;;4.70;4.27;;;;;;;9.12;100.00;99268.63;5005235;28;20561;-69
2022/12/23 10:39:51;;;;;;;5.17;4.53;;;;;;;9.27;100.00;99259.94;5002722;28;20198;-68
2022/12/23 10:42:55;;;;;;;8.93;5.33;;;;;;;9.25;100.00;99248.94;4992446;28;20357;-68
2022/12/23 10:45:46;;;;;;;5.30;4.80;;;;;;;9.22;100.00;99246.59;5009110;28;20265;-68
2022/12/23 10:48:36;;;;;;;5.63;4.93;;;;;;;9.17;100.00;99240.94;5009944;28;20249;-68
2022/12/23 10:51:19;;;;;;;5.93;5.20;;;;;;;9.05;100.00;99237.38;4996105;28;20309;-68
2022/12/23 10:53:54;;;;;;;8.23;5.70;;;;;;;9.06;100.00;99218.50;5003274;28;20190;-62
2022/12/23 10:56:20;;;;;;;6.73;5.77;;;;;;;9.01;100.00;99212.84;5009674;28;20653;-61
2022/12/23 10:58:51;;;;;;;10.77;7.90;;;;;;;9.10;100.00;99206.31;5009506;28;20210;-62
2022/12/23 11:01:18;;;;;;;13.80;6.60;;;;;;;9.10;100.00;99193.47;4996209;28;20672;-61
2022/12/23 11:03:58;;;;;;;6.83;5.87;;;;;;;9.06;100.00;99195.41;5009393;28;20738;-67
2022/12/23 11:06:24;;;;;;;11.20;5.60;;;;;;;9.01;100.00;99195.69;5008733;28;20183;-62
2022/12/23 11:08:49;;;;;;;7.50;4.33;;;;;;;9.03;100.00;99191.31;5007595;28;20227;-62
2022/12/23 11:11:15;;;;;;;6.27;4.37;;;;;;;9.02;100.00;99192.22;5002991;28;20213;-67
2022/12/23 11:13:43;;;;;;;6.30;4.77;;;;;;;9.04;100.00;99184.41;5011917;28;20666;-61
2022/12/23 11:16:26;;;;;;;8.43;4.50;;;;;;;8.81;100.00;99167.91;5006398;28;20190;-64
2022/12/23 11:18:53;;;;;;;3.93;3.53;;;;;;;8.92;100.00;99173.19;5009321;28;20179;-68
2022/12/23 11:21:18;;;;;;;4.90;3.93;;;;;;;9.04;100.00;99166.47;5002048;28;20219;-62
2022/12/23 11:23:44;;;;;;;4.87;3.57;;;;;;;9.09;100.00;99159.31;5008606;28;20186;-62
2022/12/23 11:26:17;;;;;;;6.63;4.10;;;;;;;9.18;100.00;99168.97;5005747;28;20571;-63
2022/12/23 11:28:49;;;;;;;8.13;4.10;;;;;;;9.17;100.00;99158.81;5022911;28;20190;-63
2022/12/23 11:31:27;;;;;;;5.70;4.53;;;;;;;9.18;100.00;99158.72;5002037;28;20226;-63
2022/12/23 11:34:05;;;;;;;7.03;4.03;;;;;;;9.23;100.00;99150.72;5006785;28;20202;-63
2022/12/23 11:36:32;;;;;;;4.40;4.00;;;;;;;9.39;100.00;99140.31;5008289;28;20178;-63
2022/12/23 11:39:27;;;;;;;4.47;3.73;;;;;;;9.29;100.00;99127.25;5008225;28;20174;-63
2022/12/23 11:42:02;;;;;;;4.87;3.80;;;;;;;9.28;100.00;99120.47;4998813;28;20233;-62
2022/12/23 11:44:32;;;;;;;4.10;3.43;;;;;;;9.18;100.00;99117.66;5015332;28;20270;-67
2022/12/23 11:47:17;;;;;;;9.03;3.93;;;;;;;9.17;100.00;99112.63;5006127;28;20233;-65
2022/12/23 11:49:52;;;;;;;5.20;3.53;;;;;;;9.32;100.00;99118.53;5009474;28;20189;-61
2022/12/23 11:52:19;;;;;;;5.17;3.77;;;;;;;9.45;100.00;99109.09;4997410;28;20705;-62
2022/12/23 11:54:51;;;;;;;10.10;3.70;;;;;;;9.46;100.00;99102.22;5006579;28;20206;-67
2022/12/23 11:57:21;;;;;;;6.57;3.70;;;;;;;9.50;100.00;99096.78;5008691;28;20171;-67
2022/12/23 11:59:49;;;;;;;5.73;3.50;;;;;;;9.52;100.00;99092.34;5007013;28;20206;-62
2022/12/23 12:02:23;;;;;;;6.63;3.27;;;;;;;9.36;100.00;99084.88;4987249;28;20226;-63
2022/12/23 12:04:56;;;;;;;3.70;3.40;;;;;;;9.23;100.00;99075.47;5007621;28;20190;-67
2022/12/23 12:07:23;;;;;;;5.40;3.67;;;;;;;9.32;100.00;99073.13;5009131;28;20177;-62